sensor_id;sensor_type;location;lat;lon;timestamp;pressure;altitude;pressure_sealevel;temperature;humidity
23166;BME280;11751;42.700;24.170;2023-03-02T00:01:00;94303.25;;;5.99;nan
23166;BME280;11751;42.700;24.170;2023-03-02T00:03:27;94299.09;;;5.87;nan
23166;BME280;11751;42.700;24.170;2023-03-02T00:05:54;94291.50;;;5.88;nan
23166;BME280;11751;42.700;24.170;2023-03-02T00:08:20;94295.63;;;5.81;nan
23166;BME280;11751;42.700;24.170;2023-03-02T00:10:46;94294.25;;;5.64;nan
23166;BME280;11751;42.700;24.170;2023-03-02T00:13:12;94293.59;;;5.58;nan
23166;BME280;11751;42.700;24.170;2023-03-02T00:15:38;94303.13;;;5.62;nan
23166;BME280;11751;42.700;24.170;2023-03-02T00:18:04;94292.28;;;5.59;nan
23166;BME280;11751;42.700;24.170;2023-03-02T00:20:30;94291.06;;;5.54;nan
23166;BME280;11751;42.700;24.170;2023-03-02T00:22:55;94282.97;;;5.56;nan
23166;BME280;11751;42.700;24.170;2023-03-02T00:25:21;94286.38;;;5.44;nan
23166;BME280;11751;42.700;24.170;2023-03-02T00:27:46;94289.91;;;5.44;nan
23166;BME280;11751;42.700;24.170;2023-03-02T00:30:12;94289.41;;;5.46;nan
23166;BME280;11751;42.700;24.170;2023-03-02T00:32:40;94296.41;;;5.52;nan
23166;BME280;11751;42.700;24.170;2023-03-02T00:35:06;94286.56;;;5.51;nan
23166;BME280;11751;42.700;24.170;2023-03-02T00:37:33;94279.41;;;5.61;nan
23166;BME280;11751;42.700;24.170;2023-03-02T00:39:58;94282.03;;;5.48;nan
23166;BME280;11751;42.700;24.170;2023-03-02T00:42:24;94290.81;;;5.58;nan
23166;BME280;11751;42.700;24.170;2023-03-02T00:44:51;94290.91;;;5.47;nan
23166;BME280;11751;42.700;24.170;2023-03-02T00:47:16;94285.16;;;5.39;nan
23166;BME280;11751;42.700;24.170;2023-03-02T00:49:42;94286.47;;;5.33;nan
23166;BME280;11751;42.700;24.170;2023-03-02T00:52:13;94283.03;;;5.27;nan
23166;BME280;11751;42.700;24.170;2023-03-02T00:54:38;94284.41;;;5.39;nan
23166;BME280;11751;42.700;24.170;2023-03-02T00:57:04;94285.22;;;5.34;nan
23166;BME280;11751;42.700;24.170;2023-03-02T00:59:29;94287.13;;;5.44;nan
23166;BME280;11751;42.700;24.170;2023-03-02T01:01:56;94288.19;;;5.41;nan
23166;BME280;11751;42.700;24.170;2023-03-02T01:04:27;94283.13;;;5.40;nan
23166;BME280;11751;42.700;24.170;2023-03-02T01:07:02;94273.03;;;5.42;nan
23166;BME280;11751;42.700;24.170;2023-03-02T01:09:29;94278.97;;;5.28;nan
23166;BME280;11751;42.700;24.170;2023-03-02T01:11:55;94282.63;;;5.41;nan
23166;BME280;11751;42.700;24.170;2023-03-02T01:14:21;94277.94;;;5.55;nan
23166;BME280;11751;42.700;24.170;2023-03-02T01:16:46;94276.19;;;5.52;nan
23166;BME280;11751;42.700;24.170;2023-03-02T01:19:15;94267.91;;;5.46;nan
23166;BME280;11751;42.700;24.170;2023-03-02T01:21:41;94267.34;;;5.53;nan
23166;BME280;11751;42.700;24.170;2023-03-02T01:24:07;94266.13;;;5.49;nan
23166;BME280;11751;42.700;24.170;2023-03-02T01:26:33;94271.88;;;5.56;nan
23166;BME280;11751;42.700;24.170;2023-03-02T01:28:59;94261.78;;;5.53;nan
23166;BME280;11751;42.700;24.170;2023-03-02T01:31:25;94259.34;;;5.44;nan
23166;BME280;11751;42.700;24.170;2023-03-02T01:33:51;94261.63;;;5.46;nan
23166;BME280;11751;42.700;24.170;2023-03-02T01:36:17;94266.06;;;5.54;nan
23166;BME280;11751;42.700;24.170;2023-03-02T01:38:43;94273.38;;;5.57;nan
23166;BME280;11751;42.700;24.170;2023-03-02T01:41:09;94267.00;;;5.38;nan
23166;BME280;11751;42.700;24.170;2023-03-02T01:43:36;94266.72;;;5.42;nan
23166;BME280;11751;42.700;24.170;2023-03-02T01:48:33;94275.47;;;5.51;nan
23166;BME280;11751;42.700;24.170;2023-03-02T01:51:00;94263.88;;;5.47;nan
23166;BME280;11751;42.700;24.170;2023-03-02T01:53:28;94251.75;;;5.50;nan
23166;BME280;11751;42.700;24.170;2023-03-02T01:55:56;94262.84;;;5.50;nan
23166;BME280;11751;42.700;24.170;2023-03-02T01:58:24;94262.84;;;5.50;nan
23166;BME280;11751;42.700;24.170;2023-03-02T02:00:51;94254.34;;;5.67;nan
23166;BME280;11751;42.700;24.170;2023-03-02T02:03:21;94253.88;;;5.63;nan
23166;BME280;11751;42.700;24.170;2023-03-02T02:05:57;94261.97;;;5.61;nan
23166;BME280;11751;42.700;24.170;2023-03-02T02:08:24;94253.13;;;5.62;nan
23166;BME280;11751;42.700;24.170;2023-03-02T02:10:50;94253.13;;;5.62;nan
23166;BME280;11751;42.700;24.170;2023-03-02T02:13:16;94247.78;;;5.64;nan
23166;BME280;11751;42.700;24.170;2023-03-02T02:15:43;94250.00;;;5.71;nan
23166;BME280;11751;42.700;24.170;2023-03-02T02:18:08;94252.66;;;5.58;nan
23166;BME280;11751;42.700;24.170;2023-03-02T02:20:42;94243.06;;;5.59;nan
23166;BME280;11751;42.700;24.170;2023-03-02T02:23:21;94251.50;;;5.72;nan
23166;BME280;11751;42.700;24.170;2023-03-02T02:28:40;94250.88;;;5.85;nan
23166;BME280;11751;42.700;24.170;2023-03-02T02:31:20;94244.09;;;5.56;nan
23166;BME280;11751;42.700;24.170;2023-03-02T02:33:52;94234.66;;;5.65;nan
23166;BME280;11751;42.700;24.170;2023-03-02T02:36:22;94240.59;;;5.74;nan
23166;BME280;11751;42.700;24.170;2023-03-02T02:38:53;94229.94;;;5.84;nan
23166;BME280;11751;42.700;24.170;2023-03-02T02:41:22;94237.72;;;5.85;nan
23166;BME280;11751;42.700;24.170;2023-03-02T02:43:49;94238.63;;;5.93;nan
23166;BME280;11751;42.700;24.170;2023-03-02T02:46:15;94239.72;;;5.90;nan
23166;BME280;11751;42.700;24.170;2023-03-02T02:48:40;94229.06;;;5.70;nan
23166;BME280;11751;42.700;24.170;2023-03-02T02:51:08;94228.34;;;5.64;nan
23166;BME280;11751;42.700;24.170;2023-03-02T02:56:16;94218.91;;;5.73;nan
23166;BME280;11751;42.700;24.170;2023-03-02T02:58:51;94218.03;;;5.83;nan
23166;BME280;11751;42.700;24.170;2023-03-02T03:01:20;94216.09;;;5.78;nan
23166;BME280;11751;42.700;24.170;2023-03-02T03:03:55;94217.25;;;5.88;nan
23166;BME280;11751;42.700;24.170;2023-03-02T03:06:24;94205.88;;;5.86;nan
23166;BME280;11751;42.700;24.170;2023-03-02T03:08:56;94217.47;;;5.90;nan
23166;BME280;11751;42.700;24.170;2023-03-02T03:11:25;94215.84;;;6.00;nan
23166;BME280;11751;42.700;24.170;2023-03-02T03:13:58;94203.22;;;5.99;nan
23166;BME280;11751;42.700;24.170;2023-03-02T03:16:27;94190.41;;;5.91;nan
23166;BME280;11751;42.700;24.170;2023-03-02T03:18:55;94190.59;;;5.98;nan
23166;BME280;11751;42.700;24.170;2023-03-02T03:21:22;94200.19;;;5.97;nan
23166;BME280;11751;42.700;24.170;2023-03-02T03:23:47;94199.28;;;6.07;nan
23166;BME280;11751;42.700;24.170;2023-03-02T03:26:14;94192.53;;;6.03;nan
23166;BME280;11751;42.700;24.170;2023-03-02T03:28:39;94197.50;;;6.10;nan
23166;BME280;11751;42.700;24.170;2023-03-02T03:31:05;94197.94;;;6.14;nan
23166;BME280;11751;42.700;24.170;2023-03-02T03:33:30;94201.19;;;6.18;nan
23166;BME280;11751;42.700;24.170;2023-03-02T03:35:56;94200.34;;;6.23;nan
23166;BME280;11751;42.700;24.170;2023-03-02T03:38:21;94203.72;;;6.16;nan
23166;BME280;11751;42.700;24.170;2023-03-02T03:40:47;94214.84;;;5.97;nan
23166;BME280;11751;42.700;24.170;2023-03-02T03:43:12;94199.28;;;5.89;nan
23166;BME280;11751;42.700;24.170;2023-03-02T03:45:39;94211.78;;;6.01;nan
23166;BME280;11751;42.700;24.170;2023-03-02T03:48:05;94212.59;;;5.96;nan
23166;BME280;11751;42.700;24.170;2023-03-02T03:50:30;94205.91;;;6.04;nan
23166;BME280;11751;42.700;24.170;2023-03-02T03:52:56;94197.13;;;6.00;nan
23166;BME280;11751;42.700;24.170;2023-03-02T03:55:21;94192.53;;;6.03;nan
23166;BME280;11751;42.700;24.170;2023-03-02T03:57:46;94192.00;;;5.86;nan
23166;BME280;11751;42.700;24.170;2023-03-02T04:00:13;94184.53;;;5.76;nan
23166;BME280;11751;42.700;24.170;2023-03-02T04:02:39;94187.41;;;5.89;nan
23166;BME280;11751;42.700;24.170;2023-03-02T04:05:06;94186.53;;;5.99;nan
23166;BME280;11751;42.700;24.170;2023-03-02T04:07:32;94184.84;;;5.72;nan
23166;BME280;11751;42.700;24.170;2023-03-02T04:09:58;94179.25;;;5.96;nan
23166;BME280;11751;42.700;24.170;2023-03-02T04:12:29;94174.13;;;6.00;nan
23166;BME280;11751;42.700;24.170;2023-03-02T04:14:55;94172.41;;;5.97;nan
23166;BME280;11751;42.700;24.170;2023-03-02T04:17:20;94185.63;;;6.09;nan
23166;BME280;11751;42.700;24.170;2023-03-02T04:19:46;94184.59;;;6.12;nan
23166;BME280;11751;42.700;24.170;2023-03-02T04:22:11;94180.44;;;6.19;nan
23166;BME280;11751;42.700;24.170;2023-03-02T04:24:36;94183.53;;;6.15;nan
23166;BME280;11751;42.700;24.170;2023-03-02T04:27:02;94181.72;;;6.18;nan
23166;BME280;11751;42.700;24.170;2023-03-02T04:29:28;94186.66;;;6.25;nan
23166;BME280;11751;42.700;24.170;2023-03-02T04:31:56;94195.91;;;6.33;nan
23166;BME280;11751;42.700;24.170;2023-03-02T04:34:21;94198.25;;;6.29;nan
23166;BME280;11751;42.700;24.170;2023-03-02T04:36:47;94196.75;;;6.28;nan
23166;BME280;11751;42.700;24.170;2023-03-02T04:39:15;94194.28;;;6.24;nan
23166;BME280;11751;42.700;24.170;2023-03-02T04:41:41;94197.88;;;6.19;nan
23166;BME280;11751;42.700;24.170;2023-03-02T04:44:07;94196.00;;;6.09;nan
23166;BME280;11751;42.700;24.170;2023-03-02T04:46:32;94202.25;;;5.96;nan
23166;BME280;11751;42.700;24.170;2023-03-02T04:48:58;94200.81;;;5.90;nan
23166;BME280;11751;42.700;24.170;2023-03-02T04:51:27;94205.59;;;5.90;nan
23166;BME280;11751;42.700;24.170;2023-03-02T04:53:54;94205.44;;;6.00;nan
23166;BME280;11751;42.700;24.170;2023-03-02T04:56:20;94206.50;;;5.79;nan
23166;BME280;11751;42.700;24.170;2023-03-02T04:58:46;94202.22;;;5.78;nan
23166;BME280;11751;42.700;24.170;2023-03-02T05:01:13;94202.94;;;5.79;nan
23166;BME280;11751;42.700;24.170;2023-03-02T05:03:39;94205.56;;;5.71;nan
23166;BME280;11751;42.700;24.170;2023-03-02T05:06:04;94211.28;;;5.79;nan
23166;BME280;11751;42.700;24.170;2023-03-02T05:08:30;94220.63;;;5.81;nan
23166;BME280;11751;42.700;24.170;2023-03-02T05:10:55;94225.41;;;5.81;nan
23166;BME280;11751;42.700;24.170;2023-03-02T05:13:23;94225.19;;;5.73;nan
23166;BME280;11751;42.700;24.170;2023-03-02T05:15:49;94236.56;;;5.75;nan
23166;BME280;11751;42.700;24.170;2023-03-02T05:18:16;94250.00;;;5.71;nan
23166;BME280;11751;42.700;24.170;2023-03-02T05:20:41;94239.47;;;5.40;nan
23166;BME280;11751;42.700;24.170;2023-03-02T05:23:09;94234.72;;;5.35;nan
23166;BME280;11751;42.700;24.170;2023-03-02T05:25:36;94222.97;;;5.24;nan
23166;BME280;11751;42.700;24.170;2023-03-02T05:28:03;94225.31;;;5.14;nan
23166;BME280;11751;42.700;24.170;2023-03-02T05:30:29;94224.28;;;5.17;nan
23166;BME280;11751;42.700;24.170;2023-03-02T05:32:57;94237.34;;;5.28;nan
23166;BME280;11751;42.700;24.170;2023-03-02T05:35:23;94233.78;;;5.27;nan
23166;BME280;11751;42.700;24.170;2023-03-02T05:37:48;94230.22;;;5.32;nan
23166;BME280;11751;42.700;24.170;2023-03-02T05:40:17;94227.50;;;5.27;nan
23166;BME280;11751;42.700;24.170;2023-03-02T05:42:43;94217.25;;;5.40;nan
23166;BME280;11751;42.700;24.170;2023-03-02T05:45:18;94215.72;;;5.15;nan
23166;BME280;11751;42.700;24.170;2023-03-02T05:47:44;94217.03;;;5.38;nan
23166;BME280;11751;42.700;24.170;2023-03-02T05:50:10;94222.09;;;5.34;nan
23166;BME280;11751;42.700;24.170;2023-03-02T05:52:35;94223.16;;;5.31;nan
23166;BME280;11751;42.700;24.170;2023-03-02T05:55:01;94221.00;;;5.43;nan
23166;BME280;11751;42.700;24.170;2023-03-02T05:57:26;94223.16;;;5.55;nan
23166;BME280;11751;42.700;24.170;2023-03-02T05:59:51;94224.31;;;5.41;nan
23166;BME280;11751;42.700;24.170;2023-03-02T06:02:17;94231.59;;;5.44;nan
23166;BME280;11751;42.700;24.170;2023-03-02T06:04:43;94239.81;;;5.31;nan
23166;BME280;11751;42.700;24.170;2023-03-02T06:07:09;94237.72;;;5.37;nan
23166;BME280;11751;42.700;24.170;2023-03-02T06:09:36;94243.28;;;5.37;nan
23166;BME280;11751;42.700;24.170;2023-03-02T06:12:02;94235.06;;;5.50;nan
23166;BME280;11751;42.700;24.170;2023-03-02T06:14:27;94245.72;;;5.70;nan
23166;BME280;11751;42.700;24.170;2023-03-02T06:16:53;94248.25;;;5.68;nan
23166;BME280;11751;42.700;24.170;2023-03-02T06:19:18;94250.22;;;5.73;nan
23166;BME280;11751;42.700;24.170;2023-03-02T06:21:43;94249.69;;;5.75;nan
23166;BME280;11751;42.700;24.170;2023-03-02T06:24:09;94259.50;;;5.81;nan
23166;BME280;11751;42.700;24.170;2023-03-02T06:26:34;94259.44;;;5.87;nan
23166;BME280;11751;42.700;24.170;2023-03-02T06:29:00;94259.16;;;5.90;nan
23166;BME280;11751;42.700;24.170;2023-03-02T06:31:25;94260.56;;;5.78;nan
23166;BME280;11751;42.700;24.170;2023-03-02T06:33:50;94259.72;;;5.59;nan
23166;BME280;11751;42.700;24.170;2023-03-02T06:36:16;94275.41;;;5.81;nan
23166;BME280;11751;42.700;24.170;2023-03-02T06:38:41;94270.25;;;5.66;nan
23166;BME280;11751;42.700;24.170;2023-03-02T06:41:07;94263.59;;;5.51;nan
23166;BME280;11751;42.700;24.170;2023-03-02T06:43:32;94270.81;;;5.59;nan
23166;BME280;11751;42.700;24.170;2023-03-02T06:45:58;94273.13;;;5.55;nan
23166;BME280;11751;42.700;24.170;2023-03-02T06:48:25;94267.25;;;5.40;nan
23166;BME280;11751;42.700;24.170;2023-03-02T06:50:51;94256.06;;;5.46;nan
23166;BME280;11751;42.700;24.170;2023-03-02T06:53:16;94269.03;;;5.62;nan
23166;BME280;11751;42.700;24.170;2023-03-02T06:55:46;94259.72;;;5.59;nan
23166;BME280;11751;42.700;24.170;2023-03-02T06:58:11;94266.53;;;5.58;nan
23166;BME280;11751;42.700;24.170;2023-03-02T07:00:38;94272.22;;;5.71;nan
23166;BME280;11751;42.700;24.170;2023-03-02T07:03:03;94269.88;;;5.81;nan
23166;BME280;11751;42.700;24.170;2023-03-02T07:05:29;94271.94;;;5.75;nan
23166;BME280;11751;42.700;24.170;2023-03-02T07:07:57;94272.78;;;5.64;nan
23166;BME280;11751;42.700;24.170;2023-03-02T07:10:22;94274.69;;;5.80;nan
23166;BME280;11751;42.700;24.170;2023-03-02T07:12:48;94278.06;;;5.68;nan
23166;BME280;11751;42.700;24.170;2023-03-02T07:15:13;94272.69;;;5.51;nan
23166;BME280;11751;42.700;24.170;2023-03-02T07:17:41;94279.06;;;5.70;nan
23166;BME280;11751;42.700;24.170;2023-03-02T07:20:07;94280.78;;;5.73;nan
23166;BME280;11751;42.700;24.170;2023-03-02T07:22:33;94266.09;;;5.78;nan
23166;BME280;11751;42.700;24.170;2023-03-02T07:24:59;94272.13;;;5.82;nan
23166;BME280;11751;42.700;24.170;2023-03-02T07:27:24;94275.34;;;5.86;nan
23166;BME280;11751;42.700;24.170;2023-03-02T07:29:50;94280.84;;;5.92;nan
23166;BME280;11751;42.700;24.170;2023-03-02T07:32:15;94273.78;;;5.91;nan
23166;BME280;11751;42.700;24.170;2023-03-02T07:34:41;94275.13;;;5.84;nan
23166;BME280;11751;42.700;24.170;2023-03-02T07:37:06;94279.94;;;5.84;nan
23166;BME280;11751;42.700;24.170;2023-03-02T07:39:32;94278.00;;;5.97;nan
23166;BME280;11751;42.700;24.170;2023-03-02T07:41:58;94276.97;;;6.00;nan
23166;BME280;11751;42.700;24.170;2023-03-02T07:44:25;94279.63;;;6.11;nan
23166;BME280;11751;42.700;24.170;2023-03-02T07:46:50;94279.91;;;6.07;nan
23166;BME280;11751;42.700;24.170;2023-03-02T07:49:16;94273.84;;;6.09;nan
23166;BME280;11751;42.700;24.170;2023-03-02T07:51:41;94282.63;;;6.13;nan
23166;BME280;11751;42.700;24.170;2023-03-02T07:54:07;94280.59;;;6.13;nan
23166;BME280;11751;42.700;24.170;2023-03-02T07:56:32;94285.13;;;6.16;nan
23166;BME280;11751;42.700;24.170;2023-03-02T07:58:57;94283.09;;;6.17;nan
23166;BME280;11751;42.700;24.170;2023-03-02T08:01:23;94286.47;;;6.10;nan
23166;BME280;11751;42.700;24.170;2023-03-02T08:03:48;94282.19;;;6.09;nan
23166;BME280;11751;42.700;24.170;2023-03-02T08:06:14;94280.91;;;5.86;nan
23166;BME280;11751;42.700;24.170;2023-03-02T08:08:39;94286.72;;;5.88;nan
23166;BME280;11751;42.700;24.170;2023-03-02T08:11:07;94282.28;;;5.74;nan
23166;BME280;11751;42.700;24.170;2023-03-02T08:13:33;94280.00;;;5.78;nan
23166;BME280;11751;42.700;24.170;2023-03-02T08:16:02;94284.97;;;5.85;nan
23166;BME280;11751;42.700;24.170;2023-03-02T08:18:28;94292.44;;;5.95;nan
23166;BME280;11751;42.700;24.170;2023-03-02T08:20:54;94295.72;;;5.94;nan
23166;BME280;11751;42.700;24.170;2023-03-02T08:23:20;94295.84;;;6.07;nan
23166;BME280;11751;42.700;24.170;2023-03-02T08:25:46;94292.03;;;6.10;nan
23166;BME280;11751;42.700;24.170;2023-03-02T08:28:11;94289.00;;;6.08;nan
23166;BME280;11751;42.700;24.170;2023-03-02T08:30:37;94303.56;;;6.14;nan
23166;BME280;11751;42.700;24.170;2023-03-02T08:33:03;94299.69;;;6.22;nan
23166;BME280;11751;42.700;24.170;2023-03-02T08:35:28;94296.00;;;6.14;nan
23166;BME280;11751;42.700;24.170;2023-03-02T08:37:54;94300.13;;;6.08;nan
23166;BME280;11751;42.700;24.170;2023-03-02T08:40:19;94295.09;;;6.25;nan
23166;BME280;11751;42.700;24.170;2023-03-02T08:42:45;94290.81;;;6.24;nan
23166;BME280;11751;42.700;24.170;2023-03-02T08:45:10;94296.84;;;6.28;nan
23166;BME280;11751;42.700;24.170;2023-03-02T08:47:36;94291.19;;;6.15;nan
23166;BME280;11751;42.700;24.170;2023-03-02T08:50:03;94290.00;;;6.29;nan
23166;BME280;11751;42.700;24.170;2023-03-02T08:52:28;94287.13;;;6.16;nan
23166;BME280;11751;42.700;24.170;2023-03-02T08:54:54;94293.97;;;6.15;nan
23166;BME280;11751;42.700;24.170;2023-03-02T08:57:19;94283.91;;;6.30;nan
23166;BME280;11751;42.700;24.170;2023-03-02T08:59:44;94281.22;;;6.25;nan
23166;BME280;11751;42.700;24.170;2023-03-02T09:02:10;94287.16;;;6.34;nan
23166;BME280;11751;42.700;24.170;2023-03-02T09:04:37;94290.53;;;6.46;nan
23166;BME280;11751;42.700;24.170;2023-03-02T09:07:02;94288.00;;;6.48;nan
23166;BME280;11751;42.700;24.170;2023-03-02T09:09:28;94278.53;;;6.38;nan
23166;BME280;11751;42.700;24.170;2023-03-02T09:11:53;94276.25;;;6.55;nan
23166;BME280;11751;42.700;24.170;2023-03-02T09:14:18;94276.09;;;6.66;nan
23166;BME280;11751;42.700;24.170;2023-03-02T09:16:44;94273.81;;;6.82;nan
23166;BME280;11751;42.700;24.170;2023-03-02T09:19:12;94267.94;;;6.86;nan
23166;BME280;11751;42.700;24.170;2023-03-02T09:21:38;94265.53;;;6.95;nan
23166;BME280;11751;42.700;24.170;2023-03-02T09:24:04;94242.81;;;6.91;nan
23166;BME280;11751;42.700;24.170;2023-03-02T09:26:29;94259.81;;;7.06;nan
23166;BME280;11751;42.700;24.170;2023-03-02T09:28:55;94268.22;;;7.19;nan
23166;BME280;11751;42.700;24.170;2023-03-02T09:31:21;94258.69;;;7.28;nan
23166;BME280;11751;42.700;24.170;2023-03-02T09:33:46;94261.72;;;7.43;nan
23166;BME280;11751;42.700;24.170;2023-03-02T09:36:18;94257.50;;;7.23;nan
23166;BME280;11751;42.700;24.170;2023-03-02T09:38:45;94254.66;;;7.10;nan
23166;BME280;11751;42.700;24.170;2023-03-02T09:46:43;94247.03;;;7.42;nan
23166;BME280;11751;42.700;24.170;2023-03-02T09:54:19;94252.63;;;7.55;nan
23166;BME280;11751;42.700;24.170;2023-03-02T09:56:56;94245.69;;;7.62;nan
23166;BME280;11751;42.700;24.170;2023-03-02T10:04:47;94251.34;;;7.69;nan
23166;BME280;11751;42.700;24.170;2023-03-02T10:07:32;94247.47;;;7.46;nan
23166;BME280;11751;42.700;24.170;2023-03-02T10:10:28;94250.69;;;7.50;nan
23166;BME280;11751;42.700;24.170;2023-03-02T10:18:27;94233.13;;;7.55;nan
23166;BME280;11751;42.700;24.170;2023-03-02T10:34:44;94227.34;;;7.53;nan
23166;BME280;11751;42.700;24.170;2023-03-02T10:37:13;94221.75;;;7.40;nan
23166;BME280;11751;42.700;24.170;2023-03-02T10:39:39;94218.53;;;7.49;nan
23166;BME280;11751;42.700;24.170;2023-03-02T10:42:06;94228.41;;;7.37;nan
23166;BME280;11751;42.700;24.170;2023-03-02T10:44:39;94216.16;;;7.40;nan
23166;BME280;11751;42.700;24.170;2023-03-02T10:47:06;94211.00;;;7.31;nan
23166;BME280;11751;42.700;24.170;2023-03-02T10:49:40;94213.19;;;7.38;nan
23166;BME280;11751;42.700;24.170;2023-03-02T10:52:17;94214.66;;;7.39;nan
23166;BME280;11751;42.700;24.170;2023-03-02T10:54:43;94213.38;;;7.40;nan
23166;BME280;11751;42.700;24.170;2023-03-02T10:57:42;94211.25;;;7.46;nan
23166;BME280;11751;42.700;24.170;2023-03-02T11:00:22;94204.19;;;7.45;nan
23166;BME280;11751;42.700;24.170;2023-03-02T11:03:38;94204.03;;;7.12;nan
23166;BME280;11751;42.700;24.170;2023-03-02T11:05:39;94196.97;;;7.37;nan
23166;BME280;11751;42.700;24.170;2023-03-02T11:08:15;94206.09;;;7.37;nan
23166;BME280;11751;42.700;24.170;2023-03-02T11:10:58;94194.84;;;7.30;nan
23166;BME280;11751;42.700;24.170;2023-03-02T11:13:42;94188.41;;;7.22;nan
23166;BME280;11751;42.700;24.170;2023-03-02T11:21:23;94200.38;;;7.04;nan
23166;BME280;11751;42.700;24.170;2023-03-02T11:24:10;94191.41;;;6.79;nan
23166;BME280;11751;42.700;24.170;2023-03-02T11:26:47;94197.84;;;6.87;nan
23166;BME280;11751;42.700;24.170;2023-03-02T11:31:50;94197.03;;;7.05;nan
23166;BME280;11751;42.700;24.170;2023-03-02T11:37:33;94199.28;;;7.07;nan
23166;BME280;11751;42.700;24.170;2023-03-02T11:42:40;94191.31;;;6.54;nan
23166;BME280;11751;42.700;24.170;2023-03-02T11:47:32;94196.28;;;6.61;nan
23166;BME280;11751;42.700;24.170;2023-03-02T11:50:02;94187.94;;;6.74;nan
23166;BME280;11751;42.700;24.170;2023-03-02T11:52:36;94189.47;;;6.75;nan
23166;BME280;11751;42.700;24.170;2023-03-02T11:55:18;94191.13;;;6.65;nan
23166;BME280;11751;42.700;24.170;2023-03-02T11:57:47;94190.50;;;6.72;nan
23166;BME280;11751;42.700;24.170;2023-03-02T12:00:30;94180.38;;;6.74;nan
23166;BME280;11751;42.700;24.170;2023-03-02T12:03:17;94190.72;;;6.61;nan
23166;BME280;11751;42.700;24.170;2023-03-02T12:05:57;94190.88;;;6.50;nan
23166;BME280;11751;42.700;24.170;2023-03-02T12:11:02;94188.75;;;6.56;nan
23166;BME280;11751;42.700;24.170;2023-03-02T12:13:37;94191.91;;;6.47;nan
23166;BME280;11751;42.700;24.170;2023-03-02T12:16:16;94178.72;;;6.66;nan
23166;BME280;11751;42.700;24.170;2023-03-02T12:18:48;94174.50;;;6.78;nan
23166;BME280;11751;42.700;24.170;2023-03-02T12:21:16;94175.59;;;6.87;nan
23166;BME280;11751;42.700;24.170;2023-03-02T12:31:26;94164.91;;;7.04;nan
23166;BME280;11751;42.700;24.170;2023-03-02T12:33:52;94170.06;;;7.13;nan
23166;BME280;11751;42.700;24.170;2023-03-02T12:38:59;94175.56;;;7.45;nan
23166;BME280;11751;42.700;24.170;2023-03-02T12:47:49;94165.28;;;7.40;nan
23166;BME280;11751;42.700;24.170;2023-03-02T12:50:21;94164.84;;;7.36;nan
23166;BME280;11751;42.700;24.170;2023-03-02T12:53:02;94164.84;;;7.36;nan
23166;BME280;11751;42.700;24.170;2023-03-02T12:55:29;94159.38;;;7.43;nan
23166;BME280;11751;42.700;24.170;2023-03-02T12:57:58;94159.16;;;7.41;nan
23166;BME280;11751;42.700;24.170;2023-03-02T13:00:31;94164.41;;;7.45;nan
23166;BME280;11751;42.700;24.170;2023-03-02T13:02:58;94164.53;;;7.39;nan
23166;BME280;11751;42.700;24.170;2023-03-02T13:05:30;94155.72;;;7.22;nan
23166;BME280;11751;42.700;24.170;2023-03-02T13:08:05;94152.97;;;7.35;nan
23166;BME280;11751;42.700;24.170;2023-03-02T13:13:01;94156.16;;;7.26;nan
23166;BME280;11751;42.700;24.170;2023-03-02T13:15:28;94157.03;;;7.34;nan
23166;BME280;11751;42.700;24.170;2023-03-02T13:17:58;94150.81;;;7.41;nan
23166;BME280;11751;42.700;24.170;2023-03-02T13:20:27;94155.53;;;7.33;nan
23166;BME280;11751;42.700;24.170;2023-03-02T13:22:54;94145.13;;;7.21;nan
23166;BME280;11751;42.700;24.170;2023-03-02T13:25:23;94144.06;;;7.24;nan
23166;BME280;11751;42.700;24.170;2023-03-02T13:27:54;94131.34;;;7.28;nan
23166;BME280;11751;42.700;24.170;2023-03-02T13:30:27;94131.34;;;7.28;nan
23166;BME280;11751;42.700;24.170;2023-03-02T13:32:58;94120.19;;;7.28;nan
23166;BME280;11751;42.700;24.170;2023-03-02T13:35:28;94120.38;;;7.43;nan
23166;BME280;11751;42.700;24.170;2023-03-02T13:38:03;94115.16;;;7.40;nan
23166;BME280;11751;42.700;24.170;2023-03-02T13:40:36;94121.47;;;7.40;nan
23166;BME280;11751;42.700;24.170;2023-03-02T13:43:02;94118.88;;;7.42;nan
23166;BME280;11751;42.700;24.170;2023-03-02T13:45:33;94109.78;;;7.55;nan
23166;BME280;11751;42.700;24.170;2023-03-02T13:47:59;94129.16;;;7.60;nan
23166;BME280;11751;42.700;24.170;2023-03-02T13:50:36;94119.75;;;7.50;nan
23166;BME280;11751;42.700;24.170;2023-03-02T13:53:02;94119.09;;;7.57;nan
23166;BME280;11751;42.700;24.170;2023-03-02T13:55:32;94115.16;;;7.40;nan
23166;BME280;11751;42.700;24.170;2023-03-02T13:57:58;94105.28;;;7.26;nan
23166;BME280;11751;42.700;24.170;2023-03-02T14:00:30;94106.47;;;7.17;nan
23166;BME280;11751;42.700;24.170;2023-03-02T14:02:57;94111.41;;;7.24;nan
23166;BME280;11751;42.700;24.170;2023-03-02T14:05:24;94104.09;;;6.95;nan
23166;BME280;11751;42.700;24.170;2023-03-02T14:07:51;94106.25;;;6.89;nan
23166;BME280;11751;42.700;24.170;2023-03-02T14:10:19;94105.47;;;6.89;nan
23166;BME280;11751;42.700;24.170;2023-03-02T14:13:05;94102.75;;;6.71;nan
23166;BME280;11751;42.700;24.170;2023-03-02T14:15:31;94102.75;;;6.71;nan
23166;BME280;11751;42.700;24.170;2023-03-02T14:17:58;94101.06;;;6.68;nan
23166;BME280;11751;42.700;24.170;2023-03-02T14:20:24;94106.03;;;6.56;nan
23166;BME280;11751;42.700;24.170;2023-03-02T14:22:49;94101.88;;;6.50;nan
23166;BME280;11751;42.700;24.170;2023-03-02T14:25:15;94099.50;;;6.54;nan
23166;BME280;11751;42.700;24.170;2023-03-02T14:27:41;94099.91;;;6.45;nan
23166;BME280;11751;42.700;24.170;2023-03-02T14:30:17;94097.31;;;6.34;nan
23166;BME280;11751;42.700;24.170;2023-03-02T14:32:43;94094.22;;;6.37;nan
23166;BME280;11751;42.700;24.170;2023-03-02T14:35:11;94096.66;;;6.28;nan
23166;BME280;11751;42.700;24.170;2023-03-02T14:37:40;94105.66;;;6.34;nan
23166;BME280;11751;42.700;24.170;2023-03-02T14:40:17;94104.13;;;6.33;nan
23166;BME280;11751;42.700;24.170;2023-03-02T14:42:45;94097.94;;;6.27;nan
23166;BME280;11751;42.700;24.170;2023-03-02T14:45:11;94103.66;;;6.16;nan
23166;BME280;11751;42.700;24.170;2023-03-02T14:47:36;94103.56;;;6.21;nan